createdAt,value
2018-02-01T00:01:07.155Z,7.60
2018-02-01T00:03:35.176Z,7.60
2018-02-01T00:06:02.713Z,7.60
2018-02-01T00:08:30.250Z,7.60
2018-02-01T00:10:57.806Z,7.60
2018-02-01T00:13:26.099Z,7.50
2018-02-01T00:15:53.631Z,7.50
2018-02-01T00:18:21.952Z,7.50
2018-02-01T00:20:49.483Z,7.40
2018-02-01T00:23:17.928Z,7.40
2018-02-01T00:25:45.884Z,7.40
2018-02-01T00:28:14.571Z,7.30
2018-02-01T00:30:42.091Z,7.40
2018-02-01T00:33:09.655Z,7.40
2018-02-01T00:35:37.188Z,7.40
2018-02-01T00:38:04.959Z,7.40
2018-02-01T00:40:33.295Z,7.50
2018-02-01T00:43:00.831Z,7.40
2018-02-01T00:45:29.117Z,7.40
2018-02-01T00:47:57.131Z,7.40
2018-02-01T00:50:24.662Z,7.40
2018-02-01T00:52:52.192Z,7.40
2018-02-01T00:55:19.751Z,7.50
2018-02-01T00:57:47.280Z,7.50
2018-02-01T01:00:16.532Z,7.50
2018-02-01T01:02:44.088Z,7.50
2018-02-01T01:05:11.618Z,7.50
2018-02-01T01:07:39.147Z,7.50
2018-02-01T01:10:07.004Z,7.40
2018-02-01T01:12:34.538Z,7.40
2018-02-01T01:15:02.073Z,7.40
2018-02-01T01:17:29.638Z,7.40
2018-02-01T01:19:57.271Z,7.40
2018-02-01T01:22:25.566Z,7.30
2018-02-01T01:24:53.127Z,7.30
2018-02-01T01:27:20.655Z,7.30
2018-02-01T01:29:48.939Z,7.40
2018-02-01T01:32:17.686Z,7.40
2018-02-01T01:34:45.215Z,7.40
2018-02-01T01:37:13.654Z,7.40
2018-02-01T01:39:41.583Z,7.40
2018-02-01T01:42:09.118Z,7.30
2018-02-01T01:44:36.647Z,7.30
2018-02-01T01:47:04.979Z,7.30
2018-02-01T01:49:32.524Z,7.30
2018-02-01T01:52:00.041Z,7.30
2018-02-01T01:54:28.423Z,7.30
2018-02-01T01:56:55.946Z,7.30
2018-02-01T01:59:23.477Z,7.30
2018-02-01T02:01:51.037Z,7.30
2018-02-01T02:04:18.563Z,7.30
2018-02-01T02:06:46.094Z,7.30
2018-02-01T02:09:26.056Z,7.30
2018-02-01T02:16:04.966Z,7.30
2018-02-01T02:18:32.495Z,7.20
2018-02-01T02:21:00.793Z,7.20
2018-02-01T02:23:28.357Z,7.20
2018-02-01T02:25:55.870Z,7.20
2018-02-01T02:28:23.399Z,7.20
2018-02-01T02:30:50.978Z,7.20
2018-02-01T02:33:18.518Z,7.20
2018-02-01T02:35:46.047Z,7.30
2018-02-01T02:38:14.899Z,7.30
2018-02-01T02:40:42.551Z,7.20
2018-02-01T02:43:10.075Z,7.30
2018-02-01T02:45:37.631Z,7.20
2018-02-01T02:48:05.159Z,7.20
2018-02-01T02:50:32.695Z,7.20
2018-02-01T02:53:00.244Z,7.20
2018-02-01T02:55:27.780Z,7.20
2018-02-01T02:57:55.368Z,7.20
2018-02-01T03:00:23.447Z,7.20
2018-02-01T03:02:50.979Z,7.10
2018-02-01T03:05:18.516Z,7.10
2018-02-01T03:07:46.134Z,7.10
2018-02-01T03:10:14.691Z,7.10
2018-02-01T03:12:42.228Z,7.10
2018-02-01T03:15:09.800Z,7.10
2018-02-01T03:17:37.327Z,7.10
2018-02-01T03:20:04.863Z,7.10
2018-02-01T03:22:33.583Z,7.00
2018-02-01T03:25:01.116Z,7.00
2018-02-01T03:27:29.412Z,7.00
2018-02-01T03:29:56.966Z,7.00
2018-02-01T03:32:25.272Z,6.90
2018-02-01T03:34:52.820Z,6.90
2018-02-01T03:37:20.387Z,6.90
2018-02-01T03:39:47.919Z,6.90
2018-02-01T03:42:16.899Z,6.80
2018-02-01T03:44:45.778Z,6.80
2018-02-01T03:47:15.316Z,6.80
2018-02-01T03:49:42.852Z,6.80
2018-02-01T03:52:11.186Z,6.80
2018-02-01T03:54:38.718Z,6.80
2018-02-01T03:57:06.256Z,6.80
2018-02-01T03:59:33.812Z,6.80
2018-02-01T04:02:02.113Z,6.80
2018-02-01T04:04:29.643Z,6.80
2018-02-01T04:06:57.687Z,6.80
2018-02-01T04:09:25.219Z,6.80
2018-02-01T04:11:52.749Z,6.80
2018-02-01T04:14:21.087Z,6.70
2018-02-01T04:16:48.615Z,6.70
2018-02-01T04:19:16.402Z,6.70
2018-02-01T04:21:43.955Z,6.70
2018-02-01T04:24:11.492Z,6.60
2018-02-01T04:26:39.016Z,6.60
2018-02-01T04:29:06.956Z,6.60
2018-02-01T04:31:34.489Z,6.60
2018-02-01T04:34:02.015Z,6.50
2018-02-01T04:36:29.562Z,6.50
2018-02-01T04:38:57.099Z,6.50
2018-02-01T04:41:24.631Z,6.40
2018-02-01T04:43:52.903Z,6.40
2018-02-01T04:46:20.430Z,6.40
2018-02-01T04:48:48.781Z,6.40
2018-02-01T04:51:16.867Z,6.40
2018-02-01T04:53:45.166Z,6.30
2018-02-01T04:56:12.691Z,6.30
2018-02-01T04:58:40.261Z,6.30
2018-02-01T05:01:07.782Z,6.20
2018-02-01T05:03:35.303Z,6.10
2018-02-01T05:06:02.864Z,6.10
2018-02-01T05:08:31.151Z,6.00
2018-02-01T05:10:58.679Z,6.00
2018-02-01T05:13:26.418Z,6.00
2018-02-01T05:15:54.001Z,6.00
2018-02-01T05:18:21.515Z,6.00
2018-02-01T05:20:49.066Z,6.00
2018-02-01T05:23:17.362Z,5.90
2018-02-01T05:25:44.890Z,5.90
2018-02-01T05:28:12.455Z,5.90
2018-02-01T05:30:40.033Z,5.80
2018-02-01T05:33:07.593Z,5.90
2018-02-01T05:35:35.684Z,5.80
2018-02-01T05:38:03.220Z,5.80
2018-02-01T05:40:30.751Z,5.90
2018-02-01T05:42:59.084Z,5.80
2018-02-01T05:45:26.614Z,5.80
2018-02-01T05:47:54.151Z,5.80
2018-02-01T05:50:21.708Z,5.80
2018-02-01T05:52:50.005Z,5.80
2018-02-01T05:55:17.535Z,5.70
2018-02-01T05:57:46.242Z,5.60
2018-02-01T06:00:18.941Z,5.60
2018-02-01T06:05:19.855Z,5.60
2018-02-01T06:07:47.395Z,5.60
2018-02-01T06:10:16.460Z,5.50
2018-02-01T06:12:44.031Z,5.40
2018-02-01T06:15:11.570Z,5.40
2018-02-01T06:17:39.100Z,5.40
2018-02-01T06:20:07.459Z,5.40
2018-02-01T06:22:35.762Z,5.40
2018-02-01T06:25:03.290Z,5.40
2018-02-01T06:27:30.847Z,5.40
2018-02-01T06:29:58.375Z,5.30
2018-02-01T06:32:25.907Z,5.20
2018-02-01T06:34:53.463Z,5.20
2018-02-01T06:37:21.003Z,5.10
2018-02-01T06:39:48.534Z,5.10
2018-02-01T06:42:16.999Z,5.20
2018-02-01T06:44:44.528Z,5.20
2018-02-01T06:47:12.279Z,5.10
2018-02-01T06:49:40.602Z,5.00
2018-02-01T06:52:08.139Z,5.00
2018-02-01T06:54:35.667Z,5.00
2018-02-01T06:57:03.227Z,5.00
2018-02-01T06:59:31.538Z,5.10
2018-02-01T07:01:59.063Z,5.10
2018-02-01T07:04:26.888Z,5.00
2018-02-01T07:06:54.431Z,5.00
2018-02-01T07:09:21.973Z,4.90
2018-02-01T07:11:49.518Z,4.90
2018-02-01T07:14:17.047Z,4.90
2018-02-01T07:16:44.579Z,5.00
2018-02-01T07:19:12.147Z,5.00
2018-02-01T07:21:39.687Z,4.90
2018-02-01T07:24:07.230Z,5.00
2018-02-01T07:26:35.415Z,5.00
2018-02-01T07:29:02.943Z,4.90
2018-02-01T07:31:31.297Z,5.00
2018-02-01T07:33:58.823Z,4.90
2018-02-01T07:36:27.115Z,4.90
2018-02-01T07:38:54.648Z,4.90
2018-02-01T07:41:22.199Z,4.90
2018-02-01T07:43:49.732Z,4.80
2018-02-01T07:46:18.889Z,4.80
2018-02-01T07:48:46.991Z,4.70
2018-02-01T07:51:15.539Z,4.80
2018-02-01T07:53:43.074Z,4.70
2018-02-01T07:56:11.419Z,4.60
2018-02-01T07:58:38.951Z,4.60
2018-02-01T08:01:06.480Z,4.60
2018-02-01T08:03:34.045Z,4.60
2018-02-01T08:06:01.584Z,4.50
2018-02-01T08:08:29.115Z,4.50
2018-02-01T08:10:58.067Z,4.50
2018-02-01T08:13:25.601Z,4.50
2018-02-01T08:15:53.131Z,4.60
2018-02-01T08:18:20.687Z,4.70
2018-02-01T08:20:48.246Z,4.70
2018-02-01T08:23:16.483Z,4.70
2018-02-01T08:25:44.039Z,4.80
2018-02-01T08:28:11.563Z,4.70
2018-02-01T08:30:39.095Z,4.70
2018-02-01T08:33:06.969Z,4.80
2018-02-01T08:35:35.278Z,5.00
2018-02-01T08:38:02.829Z,4.90
2018-02-01T08:40:30.391Z,5.00
2018-02-01T08:42:57.933Z,5.00
2018-02-01T08:45:25.475Z,4.90
2018-02-01T08:47:53.039Z,5.00
2018-02-01T08:50:21.020Z,5.10
2018-02-01T08:52:49.336Z,5.00
2018-02-01T08:55:17.096Z,5.00
2018-02-01T08:57:44.643Z,5.10
2018-02-01T09:00:12.175Z,5.10
2018-02-01T09:02:40.507Z,5.10
2018-02-01T09:05:08.034Z,5.10
2018-02-01T09:07:35.670Z,5.10
2018-02-01T09:10:04.071Z,4.90
2018-02-01T09:12:31.603Z,5.00
2018-02-01T09:14:59.164Z,5.10
2018-02-01T09:17:26.776Z,5.00
2018-02-01T09:19:54.302Z,4.90
2018-02-01T09:22:22.599Z,4.70
2018-02-01T09:24:50.167Z,4.70
2018-02-01T09:27:17.704Z,4.60
2018-02-01T09:29:45.235Z,4.50
2018-02-01T09:32:13.712Z,4.50
2018-02-01T09:34:41.243Z,4.50
2018-02-01T09:37:08.779Z,4.50
2018-02-01T09:39:36.923Z,4.50
2018-02-01T09:42:05.244Z,4.30
2018-02-01T09:44:32.771Z,4.30
2018-02-01T09:47:01.103Z,4.40
2018-02-01T09:49:28.632Z,4.40
2018-02-01T09:51:56.500Z,4.30
2018-02-01T09:54:24.099Z,4.30
2018-02-01T09:56:51.635Z,4.40
2018-02-01T09:59:19.185Z,4.40
2018-02-01T10:01:47.055Z,4.40
2018-02-01T10:04:18.827Z,4.30
2018-02-01T10:06:46.375Z,4.20
2018-02-01T10:09:15.666Z,4.20
2018-02-01T10:11:43.232Z,4.10
2018-02-01T10:14:10.753Z,4.00
2018-02-01T10:16:39.084Z,4.00
2018-02-01T10:19:06.616Z,4.00
2018-02-01T10:21:34.171Z,4.00
2018-02-01T10:24:01.795Z,3.90
2018-02-01T10:26:29.335Z,3.90
2018-02-01T10:28:56.864Z,3.90
2018-02-01T10:31:24.437Z,3.80
2018-02-01T10:33:52.478Z,3.80
2018-02-01T10:36:20.020Z,3.80
2018-02-01T10:38:47.582Z,3.80
2018-02-01T10:41:16.440Z,3.90
2018-02-01T10:43:44.078Z,3.80
2018-02-01T10:46:11.668Z,3.80
2018-02-01T10:48:39.202Z,3.80
2018-02-01T10:51:06.736Z,3.80
2018-02-01T10:53:34.419Z,3.90
2018-02-01T10:56:01.948Z,4.00
2018-02-01T10:58:29.587Z,3.90
2018-02-01T11:00:57.147Z,3.90
2018-02-01T11:03:24.688Z,3.90
2018-02-01T11:05:52.215Z,3.90
2018-02-01T11:08:19.988Z,4.10
2018-02-01T11:10:47.608Z,4.00
2018-02-01T11:13:16.387Z,4.00
2018-02-01T11:15:44.723Z,3.90
2018-02-01T11:18:12.251Z,3.90
2018-02-01T11:20:39.784Z,3.90
2018-02-01T11:26:03.947Z,4.00
2018-02-01T11:28:31.483Z,4.10
2018-02-01T11:30:59.011Z,4.10
2018-02-01T11:33:26.574Z,4.10
2018-02-01T11:35:54.099Z,4.10
2018-02-01T11:38:21.647Z,4.00
2018-02-01T11:40:49.219Z,3.90
2018-02-01T11:43:16.768Z,3.60
2018-02-01T11:45:45.063Z,3.60
2018-02-01T11:48:13.139Z,3.50
2018-02-01T11:50:40.671Z,3.50
2018-02-01T11:53:08.981Z,3.40
2018-02-01T11:55:36.830Z,3.40
2018-02-01T11:58:04.369Z,3.50
2018-02-01T12:00:32.790Z,3.70
2018-02-01T12:03:00.348Z,3.60
2018-02-01T12:05:27.883Z,3.70
2018-02-01T12:07:55.426Z,3.70
2018-02-01T12:10:25.100Z,3.80
2018-02-01T12:12:52.637Z,3.80
2018-02-01T12:15:20.197Z,3.90
2018-02-01T12:17:47.863Z,4.00
2018-02-01T12:20:16.463Z,4.00
2018-02-01T12:22:43.998Z,4.00
2018-02-01T12:25:11.576Z,4.00
2018-02-01T12:27:39.112Z,3.90
2018-02-01T12:30:06.647Z,3.70
2018-02-01T12:32:35.078Z,3.40
2018-02-01T12:35:02.624Z,3.40
2018-02-01T12:37:30.155Z,3.20
2018-02-01T12:39:58.502Z,3.10
2018-02-01T12:42:26.625Z,3.00
2018-02-01T12:44:54.175Z,3.10
2018-02-01T12:47:21.748Z,3.10
2018-02-01T12:49:49.283Z,2.90
2018-02-01T12:52:17.595Z,2.90
2018-02-01T12:54:45.538Z,2.90
2018-02-01T12:57:24.400Z,3.00
2018-02-01T13:02:29.585Z,2.90
2018-02-01T13:04:57.122Z,2.90
2018-02-01T13:07:24.655Z,2.90
2018-02-01T13:09:52.546Z,2.60
2018-02-01T13:12:20.087Z,2.50
2018-02-01T13:14:47.611Z,2.50
2018-02-01T13:17:16.415Z,2.50
2018-02-01T13:19:43.947Z,2.40
2018-02-01T13:22:11.483Z,2.40
2018-02-01T13:24:39.043Z,2.30
2018-02-01T13:27:06.579Z,2.30
2018-02-01T13:29:34.103Z,2.30
2018-02-01T13:32:02.737Z,1.90
2018-02-01T13:34:30.488Z,1.90
2018-02-01T13:36:58.027Z,1.90
2018-02-01T13:39:25.596Z,1.90
2018-02-01T13:41:53.128Z,1.90
2018-02-01T13:44:20.657Z,1.90
2018-02-01T13:46:48.304Z,1.90
2018-02-01T13:49:17.159Z,1.90
2018-02-01T13:51:44.687Z,1.90
2018-02-01T13:54:14.466Z,2.00
2018-02-01T13:56:42.060Z,2.00
2018-02-01T13:59:10.079Z,2.10
2018-02-01T14:01:37.825Z,2.00
2018-02-01T14:04:05.351Z,1.90
2018-02-01T14:06:32.884Z,2.00
2018-02-01T14:09:00.488Z,2.00
2018-02-01T14:11:28.074Z,2.00
2018-02-01T14:13:55.628Z,2.00
2018-02-01T14:16:23.689Z,2.10
2018-02-01T14:18:51.315Z,2.10
2018-02-01T14:21:18.852Z,2.10
2018-02-01T14:23:46.429Z,2.10
2018-02-01T14:26:25.803Z,2.00
2018-02-01T14:33:13.121Z,2.00
2018-02-01T14:35:40.659Z,2.00
2018-02-01T14:38:08.212Z,1.90
2018-02-01T14:40:35.783Z,1.90
2018-02-01T14:43:03.344Z,1.90
2018-02-01T14:45:30.899Z,1.80
2018-02-01T14:47:58.476Z,1.70
2018-02-01T14:50:26.033Z,1.70
2018-02-01T14:52:53.723Z,1.60
2018-02-01T14:55:22.522Z,1.60
2018-02-01T14:57:50.852Z,1.60
2018-02-01T15:00:18.836Z,1.60
2018-02-01T15:02:46.409Z,1.70
2018-02-01T15:05:25.424Z,1.70
2018-02-01T15:14:18.082Z,1.70
2018-02-01T15:16:46.461Z,1.90
2018-02-01T15:19:16.429Z,2.00
2018-02-01T15:21:44.591Z,2.00
2018-02-01T15:24:12.213Z,2.10
2018-02-01T15:26:40.337Z,2.20
2018-02-01T15:29:07.929Z,2.20
2018-02-01T15:31:35.501Z,2.30
2018-02-01T15:34:03.052Z,2.30
2018-02-01T15:36:31.538Z,2.30
2018-02-01T15:38:59.091Z,2.40
2018-02-01T15:41:26.733Z,2.40
2018-02-01T15:43:55.080Z,2.50
2018-02-01T15:46:22.820Z,2.40
2018-02-01T15:48:50.434Z,2.50
2018-02-01T15:51:18.039Z,2.50
2018-02-01T15:53:45.602Z,2.50
2018-02-01T15:56:15.404Z,2.60
2018-02-01T15:58:43.514Z,2.50
2018-02-01T16:01:11.536Z,2.50
2018-02-01T16:03:39.631Z,2.50
2018-02-01T16:06:09.081Z,2.50
2018-02-01T16:08:36.749Z,2.40
2018-02-01T16:11:05.946Z,2.50
2018-02-01T16:13:34.538Z,2.50
2018-02-01T16:16:02.150Z,2.50
2018-02-01T16:18:29.842Z,2.50
2018-02-01T16:20:57.799Z,2.50
2018-02-01T16:23:25.340Z,2.50
2018-02-01T16:25:52.877Z,2.50
2018-02-01T16:28:20.446Z,2.50
2018-02-01T16:30:52.124Z,2.40
2018-02-01T16:33:20.517Z,2.40
2018-02-01T16:35:48.754Z,2.30
2018-02-01T16:38:16.459Z,2.30
2018-02-01T16:40:43.999Z,2.30
2018-02-01T16:43:13.021Z,2.30
2018-02-01T16:45:40.559Z,2.40
2018-02-01T16:48:14.294Z,2.30
2018-02-01T16:50:41.878Z,2.30
2018-02-01T16:53:09.415Z,2.30
2018-02-01T16:55:37.728Z,2.20
2018-02-01T16:58:05.572Z,2.20
2018-02-01T17:00:33.872Z,2.30
2018-02-01T17:03:04.105Z,2.30
2018-02-01T17:05:32.216Z,2.30
2018-02-01T17:07:59.759Z,2.20
2018-02-01T17:10:27.520Z,2.30
2018-02-01T17:12:55.183Z,2.30
2018-02-01T17:15:22.778Z,2.20
2018-02-01T17:17:50.371Z,2.20
2018-02-01T17:20:17.932Z,2.30
2018-02-01T17:22:45.472Z,2.30
2018-02-01T17:25:17.464Z,2.30
2018-02-01T17:27:45.335Z,2.30
2018-02-01T17:30:13.799Z,2.30
2018-02-01T17:32:41.330Z,2.30
2018-02-01T17:35:09.673Z,2.40
2018-02-01T17:37:37.204Z,2.30
2018-02-01T17:40:04.752Z,2.40
2018-02-01T17:42:32.302Z,2.30
2018-02-01T17:44:59.839Z,2.30
2018-02-01T17:47:27.381Z,2.40
2018-02-01T17:49:56.288Z,2.40
2018-02-01T17:52:23.823Z,2.40
2018-02-01T17:54:51.446Z,2.40
2018-02-01T17:57:19.048Z,2.30
2018-02-01T17:59:46.603Z,2.30
2018-02-01T18:02:17.612Z,2.30
2018-02-01T18:04:45.679Z,2.30
2018-02-01T18:07:25.756Z,2.20
2018-02-01T18:15:48.704Z,2.20
2018-02-01T18:18:17.827Z,2.00
2018-02-01T18:20:45.384Z,2.00
2018-02-01T18:23:14.578Z,2.00
2018-02-01T18:25:42.124Z,2.00
2018-02-01T18:28:10.414Z,2.10
2018-02-01T18:30:37.988Z,2.00
2018-02-01T18:33:05.575Z,2.00
2018-02-01T18:35:33.116Z,2.00
2018-02-01T18:38:00.974Z,2.00
2018-02-01T18:40:28.602Z,2.10
2018-02-01T18:42:56.195Z,2.10
2018-02-01T18:45:27.556Z,2.10
2018-02-01T18:47:55.107Z,2.00
2018-02-01T18:50:23.288Z,2.00
2018-02-01T18:52:50.936Z,2.00
2018-02-01T18:55:18.482Z,2.00
2018-02-01T18:57:46.058Z,2.00
2018-02-01T19:00:15.636Z,2.10
2018-02-01T19:02:44.063Z,2.10
2018-02-01T19:05:12.023Z,2.10
2018-02-01T19:07:39.631Z,2.10
2018-02-01T19:10:07.246Z,2.20
2018-02-01T19:12:34.800Z,2.20
2018-02-01T19:15:02.503Z,2.10
2018-02-01T19:17:30.048Z,2.10
2018-02-01T19:19:57.592Z,2.10
2018-02-01T19:22:25.340Z,2.10
2018-02-01T19:24:52.910Z,2.10
2018-02-01T19:27:20.495Z,2.00
2018-02-01T19:29:48.128Z,2.00
2018-02-01T19:32:16.490Z,2.10
2018-02-01T19:34:44.076Z,2.10
2018-02-01T19:37:11.703Z,2.20
2018-02-01T19:39:39.272Z,2.20
2018-02-01T19:42:07.623Z,2.20
2018-02-01T19:44:36.191Z,2.20
2018-02-01T19:49:37.570Z,2.20
2018-02-01T19:52:05.150Z,2.20
2018-02-01T19:54:32.696Z,2.20
2018-02-01T19:57:00.977Z,2.30
2018-02-01T19:59:29.541Z,2.40
2018-02-01T20:01:57.122Z,2.40
2018-02-01T20:04:24.783Z,2.30
2018-02-01T20:06:53.644Z,2.20
2018-02-01T20:09:21.188Z,2.20
2018-02-01T20:11:48.746Z,2.20
2018-02-01T20:14:16.444Z,2.20
2018-02-01T20:16:43.978Z,2.10
2018-02-01T20:19:11.586Z,2.10
2018-02-01T20:21:39.945Z,2.10
2018-02-01T20:24:07.491Z,2.00
2018-02-01T20:26:35.383Z,2.00
2018-02-01T20:29:02.928Z,2.00
2018-02-01T20:31:30.519Z,2.00
2018-02-01T20:33:58.142Z,1.90
2018-02-01T20:36:25.751Z,1.90
2018-02-01T20:38:53.368Z,1.90
2018-02-01T20:41:20.968Z,1.90
2018-02-01T20:43:49.262Z,1.80
2018-02-01T20:46:16.859Z,1.80
2018-02-01T20:48:44.533Z,1.80
2018-02-01T20:51:12.091Z,1.80
2018-02-01T20:53:39.633Z,1.90
2018-02-01T20:56:07.215Z,1.80
2018-02-01T20:58:34.843Z,1.80
2018-02-01T21:01:03.198Z,1.80
2018-02-01T21:03:30.819Z,1.80
2018-02-01T21:05:58.363Z,1.80
2018-02-01T21:08:26.372Z,1.80
2018-02-01T21:10:54.371Z,1.80
2018-02-01T21:13:21.955Z,1.80
2018-02-01T21:15:49.496Z,1.80
2018-02-01T21:18:17.111Z,1.80
2018-02-01T21:20:44.786Z,1.80
2018-02-01T21:23:14.016Z,1.80
2018-02-01T21:25:41.578Z,1.80
2018-02-01T21:28:09.107Z,1.90
2018-02-01T21:30:36.634Z,1.80
2018-02-01T21:33:04.416Z,1.80
2018-02-01T21:35:31.975Z,1.90
2018-02-01T21:37:59.578Z,1.90
2018-02-01T21:40:27.193Z,1.90
2018-02-01T21:42:54.821Z,1.80
2018-02-01T21:45:22.398Z,1.80
2018-02-01T21:47:49.997Z,1.80
2018-02-01T21:50:17.582Z,1.80
2018-02-01T21:52:45.343Z,1.80
2018-02-01T21:55:14.699Z,1.80
2018-02-01T21:57:42.282Z,1.80
2018-02-01T22:00:09.870Z,1.80
2018-02-01T22:02:37.593Z,1.70
2018-02-01T22:05:05.174Z,1.80
2018-02-01T22:07:33.479Z,1.80
2018-02-01T22:10:01.458Z,1.80
2018-02-01T22:12:29.113Z,1.80
2018-02-01T22:14:56.720Z,1.80
2018-02-01T22:17:24.433Z,1.80
2018-02-01T22:19:51.964Z,1.80
2018-02-01T22:22:19.486Z,1.90
2018-02-01T22:24:47.062Z,1.90
2018-02-01T22:27:16.424Z,1.80
2018-02-01T22:29:44.333Z,1.90
2018-02-01T22:32:11.934Z,1.90
2018-02-01T22:34:39.478Z,1.80
2018-02-01T22:37:07.019Z,1.80
2018-02-01T22:39:34.674Z,1.80
2018-02-01T22:42:02.222Z,1.90
2018-02-01T22:44:29.751Z,1.90
2018-02-01T22:46:57.305Z,1.80
2018-02-01T22:49:24.849Z,1.80
2018-02-01T22:51:52.383Z,1.90
2018-02-01T22:54:20.707Z,1.80
2018-02-01T22:56:48.244Z,1.80
2018-02-01T22:59:16.470Z,1.80
2018-02-01T23:01:44.322Z,1.80
2018-02-01T23:04:11.851Z,1.80
2018-02-01T23:06:39.383Z,1.80
2018-02-01T23:09:06.960Z,1.80
2018-02-01T23:11:34.659Z,1.80
2018-02-01T23:14:02.278Z,1.80
2018-02-01T23:16:30.599Z,1.80
2018-02-01T23:18:58.131Z,1.80
2018-02-01T23:21:25.667Z,1.70
2018-02-01T23:23:53.440Z,1.70
2018-02-01T23:26:21.742Z,1.70
2018-02-01T23:28:49.271Z,1.70
2018-02-01T23:31:16.835Z,1.70
2018-02-01T23:33:45.127Z,1.70
2018-02-01T23:36:13.571Z,1.70
2018-02-01T23:38:41.127Z,1.70
2018-02-01T23:41:08.663Z,1.70
2018-02-01T23:43:36.271Z,1.70
2018-02-01T23:46:04.403Z,1.70
2018-02-01T23:48:31.938Z,1.80
2018-02-01T23:50:59.475Z,1.90
2018-02-01T23:53:27.035Z,1.80
2018-02-01T23:55:55.337Z,1.80
2018-02-01T23:58:22.863Z,1.80
